sensor_id;sensor_type;location;lat;lon;timestamp;temperature;humidity
10453;DHT22;5274;51.992;8.518;2022-08-24T00:01:00;21.10;99.90
10453;DHT22;5274;51.992;8.518;2022-08-24T00:03:25;21.10;99.90
10453;DHT22;5274;51.992;8.518;2022-08-24T00:05:51;21.00;99.90
10453;DHT22;5274;51.992;8.518;2022-08-24T00:08:18;21.00;99.90
10453;DHT22;5274;51.992;8.518;2022-08-24T00:10:44;21.00;99.90
10453;DHT22;5274;51.992;8.518;2022-08-24T00:13:10;21.00;99.90
10453;DHT22;5274;51.992;8.518;2022-08-24T00:15:36;21.00;99.90
10453;DHT22;5274;51.992;8.518;2022-08-24T00:18:01;21.00;99.90
10453;DHT22;5274;51.992;8.518;2022-08-24T00:20:27;21.00;99.90
10453;DHT22;5274;51.992;8.518;2022-08-24T00:22:53;21.00;99.90
10453;DHT22;5274;51.992;8.518;2022-08-24T00:25:19;21.00;99.90
10453;DHT22;5274;51.992;8.518;2022-08-24T00:27:45;21.00;99.90
10453;DHT22;5274;51.992;8.518;2022-08-24T00:30:13;21.00;99.90
10453;DHT22;5274;51.992;8.518;2022-08-24T00:32:43;21.00;99.90
10453;DHT22;5274;51.992;8.518;2022-08-24T00:35:11;21.00;99.90
10453;DHT22;5274;51.992;8.518;2022-08-24T00:37:37;20.90;99.90
10453;DHT22;5274;51.992;8.518;2022-08-24T00:40:08;20.90;99.90
10453;DHT22;5274;51.992;8.518;2022-08-24T00:42:36;20.80;99.90
10453;DHT22;5274;51.992;8.518;2022-08-24T00:45:04;20.70;99.90
10453;DHT22;5274;51.992;8.518;2022-08-24T00:47:42;20.70;99.90
10453;DHT22;5274;51.992;8.518;2022-08-24T00:50:18;20.70;99.90
10453;DHT22;5274;51.992;8.518;2022-08-24T00:52:55;20.60;99.90
10453;DHT22;5274;51.992;8.518;2022-08-24T00:55:42;20.60;99.90
10453;DHT22;5274;51.992;8.518;2022-08-24T00:58:15;20.50;99.90
10453;DHT22;5274;51.992;8.518;2022-08-24T01:00:45;20.50;99.90
10453;DHT22;5274;51.992;8.518;2022-08-24T01:03:11;20.40;99.90
10453;DHT22;5274;51.992;8.518;2022-08-24T01:05:38;20.50;99.90
10453;DHT22;5274;51.992;8.518;2022-08-24T01:08:06;20.50;99.90
10453;DHT22;5274;51.992;8.518;2022-08-24T01:10:35;20.40;99.90
10453;DHT22;5274;51.992;8.518;2022-08-24T01:13:04;20.30;99.90
10453;DHT22;5274;51.992;8.518;2022-08-24T01:15:37;20.40;99.90
10453;DHT22;5274;51.992;8.518;2022-08-24T01:18:05;20.30;99.90
10453;DHT22;5274;51.992;8.518;2022-08-24T01:20:56;20.20;99.90
10453;DHT22;5274;51.992;8.518;2022-08-24T01:23:33;20.20;99.90
10453;DHT22;5274;51.992;8.518;2022-08-24T01:26:00;20.10;99.90
10453;DHT22;5274;51.992;8.518;2022-08-24T01:28:26;20.10;99.90
10453;DHT22;5274;51.992;8.518;2022-08-24T01:30:52;20.10;99.90
10453;DHT22;5274;51.992;8.518;2022-08-24T01:33:26;20.10;99.90
10453;DHT22;5274;51.992;8.518;2022-08-24T01:36:00;20.20;99.90
10453;DHT22;5274;51.992;8.518;2022-08-24T01:38:27;20.20;99.90
10453;DHT22;5274;51.992;8.518;2022-08-24T01:40:57;20.30;99.90
10453;DHT22;5274;51.992;8.518;2022-08-24T01:43:23;20.30;99.90
10453;DHT22;5274;51.992;8.518;2022-08-24T01:45:49;20.30;99.90
10453;DHT22;5274;51.992;8.518;2022-08-24T01:48:15;20.30;99.90
10453;DHT22;5274;51.992;8.518;2022-08-24T01:50:41;20.20;99.90
10453;DHT22;5274;51.992;8.518;2022-08-24T01:53:07;20.20;99.90
10453;DHT22;5274;51.992;8.518;2022-08-24T01:55:34;20.20;99.90
10453;DHT22;5274;51.992;8.518;2022-08-24T01:58:00;20.20;99.90
10453;DHT22;5274;51.992;8.518;2022-08-24T02:00:26;20.20;99.90
10453;DHT22;5274;51.992;8.518;2022-08-24T02:02:52;20.20;99.90
10453;DHT22;5274;51.992;8.518;2022-08-24T02:05:20;20.20;99.90
10453;DHT22;5274;51.992;8.518;2022-08-24T02:07:46;20.10;99.90
10453;DHT22;5274;51.992;8.518;2022-08-24T02:10:13;20.10;99.90
10453;DHT22;5274;51.992;8.518;2022-08-24T02:12:42;20.10;99.90
10453;DHT22;5274;51.992;8.518;2022-08-24T02:15:09;20.20;99.90
10453;DHT22;5274;51.992;8.518;2022-08-24T02:17:35;20.10;99.90
10453;DHT22;5274;51.992;8.518;2022-08-24T02:20:03;20.10;99.90
10453;DHT22;5274;51.992;8.518;2022-08-24T02:22:29;20.10;99.90
10453;DHT22;5274;51.992;8.518;2022-08-24T02:24:54;20.10;99.90
10453;DHT22;5274;51.992;8.518;2022-08-24T02:27:20;20.10;99.90
10453;DHT22;5274;51.992;8.518;2022-08-24T02:29:45;20.10;99.90
10453;DHT22;5274;51.992;8.518;2022-08-24T02:32:11;20.10;99.90
10453;DHT22;5274;51.992;8.518;2022-08-24T02:34:38;20.00;99.90
10453;DHT22;5274;51.992;8.518;2022-08-24T02:37:04;20.00;99.90
10453;DHT22;5274;51.992;8.518;2022-08-24T02:39:30;19.90;99.90
10453;DHT22;5274;51.992;8.518;2022-08-24T02:41:56;20.00;99.90
10453;DHT22;5274;51.992;8.518;2022-08-24T02:44:21;19.90;99.90
10453;DHT22;5274;51.992;8.518;2022-08-24T02:46:47;19.90;99.90
10453;DHT22;5274;51.992;8.518;2022-08-24T02:49:13;19.80;99.90
10453;DHT22;5274;51.992;8.518;2022-08-24T02:51:41;19.90;99.90
10453;DHT22;5274;51.992;8.518;2022-08-24T02:54:07;19.90;99.90
10453;DHT22;5274;51.992;8.518;2022-08-24T02:56:34;20.00;99.90
10453;DHT22;5274;51.992;8.518;2022-08-24T02:59:00;20.10;99.90
10453;DHT22;5274;51.992;8.518;2022-08-24T03:01:26;20.10;99.90
10453;DHT22;5274;51.992;8.518;2022-08-24T03:03:52;20.00;99.90
10453;DHT22;5274;51.992;8.518;2022-08-24T03:06:18;20.00;99.90
10453;DHT22;5274;51.992;8.518;2022-08-24T03:08:44;19.90;99.90
10453;DHT22;5274;51.992;8.518;2022-08-24T03:11:11;19.90;99.90
10453;DHT22;5274;51.992;8.518;2022-08-24T03:13:39;19.90;99.90
10453;DHT22;5274;51.992;8.518;2022-08-24T03:16:05;19.90;99.90
10453;DHT22;5274;51.992;8.518;2022-08-24T03:18:32;20.00;99.90
10453;DHT22;5274;51.992;8.518;2022-08-24T03:21:00;19.90;99.90
10453;DHT22;5274;51.992;8.518;2022-08-24T03:23:27;20.00;99.90
10453;DHT22;5274;51.992;8.518;2022-08-24T03:25:53;20.00;99.90
10453;DHT22;5274;51.992;8.518;2022-08-24T03:28:20;20.00;99.90
10453;DHT22;5274;51.992;8.518;2022-08-24T03:30:46;20.00;99.90
10453;DHT22;5274;51.992;8.518;2022-08-24T03:33:12;20.00;99.90
10453;DHT22;5274;51.992;8.518;2022-08-24T03:35:38;20.00;99.90
10453;DHT22;5274;51.992;8.518;2022-08-24T03:38:04;19.90;99.90
10453;DHT22;5274;51.992;8.518;2022-08-24T03:40:30;19.90;99.90
10453;DHT22;5274;51.992;8.518;2022-08-24T03:42:57;19.90;99.90
10453;DHT22;5274;51.992;8.518;2022-08-24T03:45:23;19.90;99.90
10453;DHT22;5274;51.992;8.518;2022-08-24T03:47:49;19.80;99.90
10453;DHT22;5274;51.992;8.518;2022-08-24T03:50:15;19.80;99.90
10453;DHT22;5274;51.992;8.518;2022-08-24T03:52:40;19.80;99.90
10453;DHT22;5274;51.992;8.518;2022-08-24T03:55:07;19.80;99.90
10453;DHT22;5274;51.992;8.518;2022-08-24T03:57:33;19.80;99.90
10453;DHT22;5274;51.992;8.518;2022-08-24T04:00:00;19.80;99.90
10453;DHT22;5274;51.992;8.518;2022-08-24T04:02:25;19.80;99.90
10453;DHT22;5274;51.992;8.518;2022-08-24T04:04:51;19.70;99.90
10453;DHT22;5274;51.992;8.518;2022-08-24T04:07:17;19.70;99.90
10453;DHT22;5274;51.992;8.518;2022-08-24T04:09:43;19.70;99.90
10453;DHT22;5274;51.992;8.518;2022-08-24T04:12:09;19.70;99.90
10453;DHT22;5274;51.992;8.518;2022-08-24T04:14:35;19.60;99.90
10453;DHT22;5274;51.992;8.518;2022-08-24T04:17:01;19.60;99.90
10453;DHT22;5274;51.992;8.518;2022-08-24T04:19:27;19.60;99.90
10453;DHT22;5274;51.992;8.518;2022-08-24T04:21:52;19.60;99.90
10453;DHT22;5274;51.992;8.518;2022-08-24T04:24:18;19.60;99.90
10453;DHT22;5274;51.992;8.518;2022-08-24T04:26:44;19.60;99.90
10453;DHT22;5274;51.992;8.518;2022-08-24T04:29:11;19.60;99.90
10453;DHT22;5274;51.992;8.518;2022-08-24T04:31:38;19.50;99.90
10453;DHT22;5274;51.992;8.518;2022-08-24T04:34:05;19.50;99.90
10453;DHT22;5274;51.992;8.518;2022-08-24T04:36:31;19.60;99.90
10453;DHT22;5274;51.992;8.518;2022-08-24T04:38:57;19.60;99.90
10453;DHT22;5274;51.992;8.518;2022-08-24T04:41:22;19.60;99.90
10453;DHT22;5274;51.992;8.518;2022-08-24T04:43:48;19.60;99.90
10453;DHT22;5274;51.992;8.518;2022-08-24T04:46:16;19.60;99.90
10453;DHT22;5274;51.992;8.518;2022-08-24T04:48:43;19.60;99.90
10453;DHT22;5274;51.992;8.518;2022-08-24T04:51:11;19.60;99.90
10453;DHT22;5274;51.992;8.518;2022-08-24T04:53:37;19.60;99.90
10453;DHT22;5274;51.992;8.518;2022-08-24T04:56:09;19.70;99.90
10453;DHT22;5274;51.992;8.518;2022-08-24T04:58:35;19.90;99.90
10453;DHT22;5274;51.992;8.518;2022-08-24T05:01:06;20.10;99.90
10453;DHT22;5274;51.992;8.518;2022-08-24T05:03:31;20.30;99.90
10453;DHT22;5274;51.992;8.518;2022-08-24T05:05:57;20.30;99.90
10453;DHT22;5274;51.992;8.518;2022-08-24T05:08:22;20.40;99.90
10453;DHT22;5274;51.992;8.518;2022-08-24T05:10:48;20.50;99.90
10453;DHT22;5274;51.992;8.518;2022-08-24T05:13:16;20.60;99.90
10453;DHT22;5274;51.992;8.518;2022-08-24T05:15:44;20.60;99.90
10453;DHT22;5274;51.992;8.518;2022-08-24T05:18:11;20.50;99.90
10453;DHT22;5274;51.992;8.518;2022-08-24T05:20:42;20.60;99.90
10453;DHT22;5274;51.992;8.518;2022-08-24T05:23:09;20.60;99.90
10453;DHT22;5274;51.992;8.518;2022-08-24T05:25:35;20.60;99.90
10453;DHT22;5274;51.992;8.518;2022-08-24T05:28:01;20.60;99.90
10453;DHT22;5274;51.992;8.518;2022-08-24T05:30:27;20.60;99.90
10453;DHT22;5274;51.992;8.518;2022-08-24T05:32:52;20.50;99.90
10453;DHT22;5274;51.992;8.518;2022-08-24T05:35:18;20.60;99.90
10453;DHT22;5274;51.992;8.518;2022-08-24T05:37:44;20.60;99.90
10453;DHT22;5274;51.992;8.518;2022-08-24T05:40:12;20.50;99.90
10453;DHT22;5274;51.992;8.518;2022-08-24T05:42:38;20.50;99.90
10453;DHT22;5274;51.992;8.518;2022-08-24T05:45:05;20.50;99.90
10453;DHT22;5274;51.992;8.518;2022-08-24T05:47:32;20.60;99.90
10453;DHT22;5274;51.992;8.518;2022-08-24T05:49:59;20.70;99.90
10453;DHT22;5274;51.992;8.518;2022-08-24T05:52:25;20.70;99.90
10453;DHT22;5274;51.992;8.518;2022-08-24T05:54:55;20.80;99.90
10453;DHT22;5274;51.992;8.518;2022-08-24T05:57:22;20.80;99.90
10453;DHT22;5274;51.992;8.518;2022-08-24T05:59:49;20.80;99.90
10453;DHT22;5274;51.992;8.518;2022-08-24T06:02:16;20.80;99.90
10453;DHT22;5274;51.992;8.518;2022-08-24T06:04:41;20.90;99.90
10453;DHT22;5274;51.992;8.518;2022-08-24T06:07:07;21.00;99.90
10453;DHT22;5274;51.992;8.518;2022-08-24T06:09:34;21.00;99.90
10453;DHT22;5274;51.992;8.518;2022-08-24T06:12:00;21.10;99.90
10453;DHT22;5274;51.992;8.518;2022-08-24T06:14:26;21.10;99.90
10453;DHT22;5274;51.992;8.518;2022-08-24T06:16:52;21.20;99.90
10453;DHT22;5274;51.992;8.518;2022-08-24T06:19:19;21.20;99.90
10453;DHT22;5274;51.992;8.518;2022-08-24T06:21:47;21.20;99.90
10453;DHT22;5274;51.992;8.518;2022-08-24T06:24:13;21.30;99.90
10453;DHT22;5274;51.992;8.518;2022-08-24T06:26:41;21.30;99.90
10453;DHT22;5274;51.992;8.518;2022-08-24T06:29:25;21.30;99.90
10453;DHT22;5274;51.992;8.518;2022-08-24T06:31:51;21.40;99.90
10453;DHT22;5274;51.992;8.518;2022-08-24T06:34:18;21.50;99.90
10453;DHT22;5274;51.992;8.518;2022-08-24T06:36:44;21.50;99.90
10453;DHT22;5274;51.992;8.518;2022-08-24T06:39:10;21.60;99.90
10453;DHT22;5274;51.992;8.518;2022-08-24T06:41:37;21.60;99.90
10453;DHT22;5274;51.992;8.518;2022-08-24T06:44:03;21.60;99.90
10453;DHT22;5274;51.992;8.518;2022-08-24T06:46:29;21.70;99.90
10453;DHT22;5274;51.992;8.518;2022-08-24T06:48:55;21.80;99.90
10453;DHT22;5274;51.992;8.518;2022-08-24T06:51:21;21.80;99.90
10453;DHT22;5274;51.992;8.518;2022-08-24T06:53:48;22.00;99.90
10453;DHT22;5274;51.992;8.518;2022-08-24T06:56:15;22.00;99.90
10453;DHT22;5274;51.992;8.518;2022-08-24T06:58:41;22.10;99.90
10453;DHT22;5274;51.992;8.518;2022-08-24T07:01:09;22.20;99.90
10453;DHT22;5274;51.992;8.518;2022-08-24T07:03:34;22.30;99.90
10453;DHT22;5274;51.992;8.518;2022-08-24T07:06:01;22.30;99.90
10453;DHT22;5274;51.992;8.518;2022-08-24T07:08:27;22.40;99.90
10453;DHT22;5274;51.992;8.518;2022-08-24T07:10:52;22.50;99.90
10453;DHT22;5274;51.992;8.518;2022-08-24T07:13:18;22.50;99.90
10453;DHT22;5274;51.992;8.518;2022-08-24T07:15:44;22.50;99.90
10453;DHT22;5274;51.992;8.518;2022-08-24T07:18:17;22.60;99.90
10453;DHT22;5274;51.992;8.518;2022-08-24T07:20:43;22.60;99.90
10453;DHT22;5274;51.992;8.518;2022-08-24T07:23:09;22.60;99.90
10453;DHT22;5274;51.992;8.518;2022-08-24T07:25:39;22.70;99.90
10453;DHT22;5274;51.992;8.518;2022-08-24T07:28:05;22.80;99.90
10453;DHT22;5274;51.992;8.518;2022-08-24T07:30:30;22.80;99.90
10453;DHT22;5274;51.992;8.518;2022-08-24T07:32:56;22.80;99.90
10453;DHT22;5274;51.992;8.518;2022-08-24T07:35:23;22.90;99.90
10453;DHT22;5274;51.992;8.518;2022-08-24T07:37:49;23.00;99.90
10453;DHT22;5274;51.992;8.518;2022-08-24T07:40:15;23.00;99.90
10453;DHT22;5274;51.992;8.518;2022-08-24T07:42:41;23.00;99.90
10453;DHT22;5274;51.992;8.518;2022-08-24T07:45:07;23.00;99.90
10453;DHT22;5274;51.992;8.518;2022-08-24T07:47:33;23.00;99.90
10453;DHT22;5274;51.992;8.518;2022-08-24T07:49:59;23.10;99.90
10453;DHT22;5274;51.992;8.518;2022-08-24T07:52:24;23.20;99.90
10453;DHT22;5274;51.992;8.518;2022-08-24T07:54:50;23.20;99.90
10453;DHT22;5274;51.992;8.518;2022-08-24T07:57:16;23.20;99.90
10453;DHT22;5274;51.992;8.518;2022-08-24T07:59:42;23.20;99.90
10453;DHT22;5274;51.992;8.518;2022-08-24T08:02:07;23.30;99.90
10453;DHT22;5274;51.992;8.518;2022-08-24T08:04:35;23.40;99.90
10453;DHT22;5274;51.992;8.518;2022-08-24T08:07:01;23.40;99.90
10453;DHT22;5274;51.992;8.518;2022-08-24T08:09:26;23.50;99.90
10453;DHT22;5274;51.992;8.518;2022-08-24T08:11:52;23.70;99.90
10453;DHT22;5274;51.992;8.518;2022-08-24T08:14:17;23.70;99.90
10453;DHT22;5274;51.992;8.518;2022-08-24T08:16:43;23.70;99.90
10453;DHT22;5274;51.992;8.518;2022-08-24T08:19:08;23.70;99.90
10453;DHT22;5274;51.992;8.518;2022-08-24T08:21:40;23.80;99.90
10453;DHT22;5274;51.992;8.518;2022-08-24T08:24:24;23.80;99.90
10453;DHT22;5274;51.992;8.518;2022-08-24T08:26:50;23.90;99.90
10453;DHT22;5274;51.992;8.518;2022-08-24T08:29:16;23.90;99.90
10453;DHT22;5274;51.992;8.518;2022-08-24T08:31:44;24.00;99.90
10453;DHT22;5274;51.992;8.518;2022-08-24T08:34:11;24.10;99.90
10453;DHT22;5274;51.992;8.518;2022-08-24T08:36:39;24.10;99.90
10453;DHT22;5274;51.992;8.518;2022-08-24T08:39:09;24.20;99.90
10453;DHT22;5274;51.992;8.518;2022-08-24T08:42:46;24.30;99.90
10453;DHT22;5274;51.992;8.518;2022-08-24T08:50:17;24.70;99.90
10453;DHT22;5274;51.992;8.518;2022-08-24T08:55:32;24.90;99.90
10453;DHT22;5274;51.992;8.518;2022-08-24T09:01:27;24.90;99.90
10453;DHT22;5274;51.992;8.518;2022-08-24T09:09:50;25.30;99.90
10453;DHT22;5274;51.992;8.518;2022-08-24T09:18:13;25.70;99.90
10453;DHT22;5274;51.992;8.518;2022-08-24T09:26:25;25.90;99.90
10453;DHT22;5274;51.992;8.518;2022-08-24T09:29:02;25.90;99.90
10453;DHT22;5274;51.992;8.518;2022-08-24T09:31:53;26.20;99.90
10453;DHT22;5274;51.992;8.518;2022-08-24T09:40:00;26.70;99.90
10453;DHT22;5274;51.992;8.518;2022-08-24T09:43:04;26.70;99.90
10453;DHT22;5274;51.992;8.518;2022-08-24T09:54:02;27.40;99.90
10453;DHT22;5274;51.992;8.518;2022-08-24T10:07:49;28.20;99.90
10453;DHT22;5274;51.992;8.518;2022-08-24T10:10:29;28.30;99.90
10453;DHT22;5274;51.992;8.518;2022-08-24T10:13:02;28.40;99.90
10453;DHT22;5274;51.992;8.518;2022-08-24T10:18:25;28.70;99.90
10453;DHT22;5274;51.992;8.518;2022-08-24T10:24:01;28.90;99.90
10453;DHT22;5274;51.992;8.518;2022-08-24T10:26:48;29.00;99.90
10453;DHT22;5274;51.992;8.518;2022-08-24T10:35:03;28.70;99.90
10453;DHT22;5274;51.992;8.518;2022-08-24T10:43:16;28.80;99.90
10453;DHT22;5274;51.992;8.518;2022-08-24T10:46:18;29.00;99.90
10453;DHT22;5274;51.992;8.518;2022-08-24T10:52:20;29.40;99.90
10453;DHT22;5274;51.992;8.518;2022-08-24T10:54:48;29.60;99.90
10453;DHT22;5274;51.992;8.518;2022-08-24T10:57:38;29.70;99.90
10453;DHT22;5274;51.992;8.518;2022-08-24T11:00:10;29.90;99.90
10453;DHT22;5274;51.992;8.518;2022-08-24T11:02:40;30.00;99.90
10453;DHT22;5274;51.992;8.518;2022-08-24T11:05:12;30.10;99.90
10453;DHT22;5274;51.992;8.518;2022-08-24T11:07:58;30.30;99.90
10453;DHT22;5274;51.992;8.518;2022-08-24T11:10:33;30.30;99.90
10453;DHT22;5274;51.992;8.518;2022-08-24T11:13:24;30.40;99.90
10453;DHT22;5274;51.992;8.518;2022-08-24T11:15:57;30.40;99.90
10453;DHT22;5274;51.992;8.518;2022-08-24T11:18:25;30.40;99.90
10453;DHT22;5274;51.992;8.518;2022-08-24T11:20:53;30.60;99.90
10453;DHT22;5274;51.992;8.518;2022-08-24T11:23:24;30.60;99.90
10453;DHT22;5274;51.992;8.518;2022-08-24T11:26:00;30.80;99.90
10453;DHT22;5274;51.992;8.518;2022-08-24T11:28:37;30.60;99.90
10453;DHT22;5274;51.992;8.518;2022-08-24T11:31:10;30.30;99.90
10453;DHT22;5274;51.992;8.518;2022-08-24T11:33:50;30.40;99.90
10453;DHT22;5274;51.992;8.518;2022-08-24T11:36:26;30.60;99.90
10453;DHT22;5274;51.992;8.518;2022-08-24T11:39:11;32.10;99.90
10453;DHT22;5274;51.992;8.518;2022-08-24T11:41:58;35.70;99.90
10453;DHT22;5274;51.992;8.518;2022-08-24T11:44:31;38.30;99.90
10453;DHT22;5274;51.992;8.518;2022-08-24T11:52:34;43.50;99.90
10453;DHT22;5274;51.992;8.518;2022-08-24T11:55:18;43.20;99.90
10453;DHT22;5274;51.992;8.518;2022-08-24T11:58:02;43.50;99.90
10453;DHT22;5274;51.992;8.518;2022-08-24T12:00:53;43.90;99.90
10453;DHT22;5274;51.992;8.518;2022-08-24T12:03:48;44.80;99.90
10453;DHT22;5274;51.992;8.518;2022-08-24T12:06:33;46.80;99.90
10453;DHT22;5274;51.992;8.518;2022-08-24T12:12:02;48.10;99.90
10453;DHT22;5274;51.992;8.518;2022-08-24T12:17:33;52.00;99.90
10453;DHT22;5274;51.992;8.518;2022-08-24T12:22:58;49.30;99.90
10453;DHT22;5274;51.992;8.518;2022-08-24T12:25:29;52.30;99.90
10453;DHT22;5274;51.992;8.518;2022-08-24T12:28:30;54.50;99.90
10453;DHT22;5274;51.992;8.518;2022-08-24T12:31:01;55.90;99.90
10453;DHT22;5274;51.992;8.518;2022-08-24T12:33:30;56.70;99.90
10453;DHT22;5274;51.992;8.518;2022-08-24T12:36:02;56.30;99.90
10453;DHT22;5274;51.992;8.518;2022-08-24T12:38:43;56.80;99.90
10453;DHT22;5274;51.992;8.518;2022-08-24T12:41:16;57.80;99.90
10453;DHT22;5274;51.992;8.518;2022-08-24T12:43:50;58.20;99.90
10453;DHT22;5274;51.992;8.518;2022-08-24T12:46:21;59.30;99.90
10453;DHT22;5274;51.992;8.518;2022-08-24T12:48:58;59.80;99.90
10453;DHT22;5274;51.992;8.518;2022-08-24T12:51:38;56.80;99.90
10453;DHT22;5274;51.992;8.518;2022-08-24T12:54:29;56.80;99.90
10453;DHT22;5274;51.992;8.518;2022-08-24T12:59:48;59.90;99.90
10453;DHT22;5274;51.992;8.518;2022-08-24T13:04:55;59.80;99.90
10453;DHT22;5274;51.992;8.518;2022-08-24T13:07:29;60.80;99.90
10453;DHT22;5274;51.992;8.518;2022-08-24T13:33:51;54.60;99.90
10453;DHT22;5274;51.992;8.518;2022-08-24T13:36:45;52.00;99.90
10453;DHT22;5274;51.992;8.518;2022-08-24T13:39:44;50.80;99.90
10453;DHT22;5274;51.992;8.518;2022-08-24T13:42:44;48.90;99.90
10453;DHT22;5274;51.992;8.518;2022-08-24T13:50:27;47.70;99.90
10453;DHT22;5274;51.992;8.518;2022-08-24T13:56:21;46.70;99.90
10453;DHT22;5274;51.992;8.518;2022-08-24T14:04:07;45.80;99.90
10453;DHT22;5274;51.992;8.518;2022-08-24T14:06:53;45.40;99.90
10453;DHT22;5274;51.992;8.518;2022-08-24T14:20:59;45.10;99.90
10453;DHT22;5274;51.992;8.518;2022-08-24T14:39:57;44.90;99.90
10453;DHT22;5274;51.992;8.518;2022-08-24T14:42:40;45.30;99.90
10453;DHT22;5274;51.992;8.518;2022-08-24T14:54:06;42.40;99.90
10453;DHT22;5274;51.992;8.518;2022-08-24T14:59:30;40.90;99.90
10453;DHT22;5274;51.992;8.518;2022-08-24T15:04:55;40.60;99.90
10453;DHT22;5274;51.992;8.518;2022-08-24T15:07:24;42.30;99.90
10453;DHT22;5274;51.992;8.518;2022-08-24T15:09:51;42.70;99.90
10453;DHT22;5274;51.992;8.518;2022-08-24T15:15:03;41.90;99.90
10453;DHT22;5274;51.992;8.518;2022-08-24T15:17:51;40.80;99.90
10453;DHT22;5274;51.992;8.518;2022-08-24T15:23:22;40.20;99.90
10453;DHT22;5274;51.992;8.518;2022-08-24T15:26:18;41.10;99.90
10453;DHT22;5274;51.992;8.518;2022-08-24T15:28:49;41.60;99.90
10453;DHT22;5274;51.992;8.518;2022-08-24T15:31:21;41.20;99.90
10453;DHT22;5274;51.992;8.518;2022-08-24T15:33:56;41.40;99.90
10453;DHT22;5274;51.992;8.518;2022-08-24T15:36:22;42.30;99.90
10453;DHT22;5274;51.992;8.518;2022-08-24T15:38:49;43.20;99.90
10453;DHT22;5274;51.992;8.518;2022-08-24T15:41:28;43.60;99.90
10453;DHT22;5274;51.992;8.518;2022-08-24T15:46:24;44.80;99.90
10453;DHT22;5274;51.992;8.518;2022-08-24T15:49:06;45.40;99.90
10453;DHT22;5274;51.992;8.518;2022-08-24T15:54:31;45.60;99.90
10453;DHT22;5274;51.992;8.518;2022-08-24T15:57:04;45.90;99.90
10453;DHT22;5274;51.992;8.518;2022-08-24T16:13:35;46.20;99.90
10453;DHT22;5274;51.992;8.518;2022-08-24T16:16:27;45.70;99.90
10453;DHT22;5274;51.992;8.518;2022-08-24T16:18:56;45.90;99.90
10453;DHT22;5274;51.992;8.518;2022-08-24T16:21:37;46.20;99.90
10453;DHT22;5274;51.992;8.518;2022-08-24T16:24:08;46.30;99.90
10453;DHT22;5274;51.992;8.518;2022-08-24T16:32:08;46.00;99.90
10453;DHT22;5274;51.992;8.518;2022-08-24T16:34:35;45.80;99.90
10453;DHT22;5274;51.992;8.518;2022-08-24T16:37:02;45.70;99.90
10453;DHT22;5274;51.992;8.518;2022-08-24T16:39:28;45.30;99.90
10453;DHT22;5274;51.992;8.518;2022-08-24T16:41:56;45.70;99.90
10453;DHT22;5274;51.992;8.518;2022-08-24T16:44:24;45.70;99.90
10453;DHT22;5274;51.992;8.518;2022-08-24T16:46:50;45.50;99.90
10453;DHT22;5274;51.992;8.518;2022-08-24T16:49:16;45.10;99.90
10453;DHT22;5274;51.992;8.518;2022-08-24T16:51:41;45.20;99.90
10453;DHT22;5274;51.992;8.518;2022-08-24T16:54:07;45.10;99.90
10453;DHT22;5274;51.992;8.518;2022-08-24T16:56:32;45.30;99.90
10453;DHT22;5274;51.992;8.518;2022-08-24T16:58:58;45.40;99.90
10453;DHT22;5274;51.992;8.518;2022-08-24T17:01:23;45.10;99.90
10453;DHT22;5274;51.992;8.518;2022-08-24T17:03:49;45.40;99.90
10453;DHT22;5274;51.992;8.518;2022-08-24T17:06:15;45.20;99.90
10453;DHT22;5274;51.992;8.518;2022-08-24T17:08:43;44.80;99.90
10453;DHT22;5274;51.992;8.518;2022-08-24T17:11:08;44.30;99.90
10453;DHT22;5274;51.992;8.518;2022-08-24T17:13:34;44.50;99.90
10453;DHT22;5274;51.992;8.518;2022-08-24T17:16:00;44.10;99.90
10453;DHT22;5274;51.992;8.518;2022-08-24T17:18:27;43.50;99.90
10453;DHT22;5274;51.992;8.518;2022-08-24T17:20:52;42.70;99.90
10453;DHT22;5274;51.992;8.518;2022-08-24T17:23:18;42.60;99.90
10453;DHT22;5274;51.992;8.518;2022-08-24T17:25:45;42.30;99.90
10453;DHT22;5274;51.992;8.518;2022-08-24T17:28:13;42.30;99.90
10453;DHT22;5274;51.992;8.518;2022-08-24T17:30:40;41.90;99.90
10453;DHT22;5274;51.992;8.518;2022-08-24T17:33:06;41.20;99.90
10453;DHT22;5274;51.992;8.518;2022-08-24T17:35:32;40.90;99.90
10453;DHT22;5274;51.992;8.518;2022-08-24T17:37:58;40.30;99.90
10453;DHT22;5274;51.992;8.518;2022-08-24T17:40:25;39.90;99.90
10453;DHT22;5274;51.992;8.518;2022-08-24T17:42:51;39.50;99.90
10453;DHT22;5274;51.992;8.518;2022-08-24T17:45:16;39.10;99.90
10453;DHT22;5274;51.992;8.518;2022-08-24T17:47:42;38.80;99.90
10453;DHT22;5274;51.992;8.518;2022-08-24T17:50:10;38.40;99.90
10453;DHT22;5274;51.992;8.518;2022-08-24T17:52:36;37.90;99.90
10453;DHT22;5274;51.992;8.518;2022-08-24T17:55:04;37.60;99.90
10453;DHT22;5274;51.992;8.518;2022-08-24T17:57:30;37.10;99.90
10453;DHT22;5274;51.992;8.518;2022-08-24T17:59:55;36.80;99.90
10453;DHT22;5274;51.992;8.518;2022-08-24T18:02:21;36.80;99.90
10453;DHT22;5274;51.992;8.518;2022-08-24T18:04:47;36.40;99.90
10453;DHT22;5274;51.992;8.518;2022-08-24T18:07:16;36.20;99.90
10453;DHT22;5274;51.992;8.518;2022-08-24T18:09:47;35.90;99.90
10453;DHT22;5274;51.992;8.518;2022-08-24T18:12:15;35.80;99.90
10453;DHT22;5274;51.992;8.518;2022-08-24T18:14:41;35.70;99.90
10453;DHT22;5274;51.992;8.518;2022-08-24T18:17:10;35.30;99.90
10453;DHT22;5274;51.992;8.518;2022-08-24T18:19:38;34.70;99.90
10453;DHT22;5274;51.992;8.518;2022-08-24T18:22:04;34.30;99.90
10453;DHT22;5274;51.992;8.518;2022-08-24T18:24:30;34.20;99.90
10453;DHT22;5274;51.992;8.518;2022-08-24T18:27:06;33.80;99.90
10453;DHT22;5274;51.992;8.518;2022-08-24T18:29:33;33.70;99.90
10453;DHT22;5274;51.992;8.518;2022-08-24T18:31:59;33.40;99.90
10453;DHT22;5274;51.992;8.518;2022-08-24T18:34:25;33.30;99.90
10453;DHT22;5274;51.992;8.518;2022-08-24T18:36:51;33.00;99.90
10453;DHT22;5274;51.992;8.518;2022-08-24T18:39:16;32.60;99.90
10453;DHT22;5274;51.992;8.518;2022-08-24T18:41:44;32.40;99.90
10453;DHT22;5274;51.992;8.518;2022-08-24T18:44:10;32.20;99.90
10453;DHT22;5274;51.992;8.518;2022-08-24T18:46:37;32.00;99.90
10453;DHT22;5274;51.992;8.518;2022-08-24T18:49:04;31.90;99.90
10453;DHT22;5274;51.992;8.518;2022-08-24T18:51:34;31.50;99.90
10453;DHT22;5274;51.992;8.518;2022-08-24T18:54:08;31.40;99.90
10453;DHT22;5274;51.992;8.518;2022-08-24T18:56:35;31.00;99.90
10453;DHT22;5274;51.992;8.518;2022-08-24T18:59:01;30.70;99.90
10453;DHT22;5274;51.992;8.518;2022-08-24T19:01:27;30.60;99.90
10453;DHT22;5274;51.992;8.518;2022-08-24T19:03:53;30.30;99.90
10453;DHT22;5274;51.992;8.518;2022-08-24T19:06:22;30.20;99.90
10453;DHT22;5274;51.992;8.518;2022-08-24T19:08:47;30.10;99.90
10453;DHT22;5274;51.992;8.518;2022-08-24T19:11:16;30.00;99.90
10453;DHT22;5274;51.992;8.518;2022-08-24T19:13:43;29.80;99.90
10453;DHT22;5274;51.992;8.518;2022-08-24T19:16:09;29.60;99.90
10453;DHT22;5274;51.992;8.518;2022-08-24T19:18:34;29.40;99.90
10453;DHT22;5274;51.992;8.518;2022-08-24T19:21:00;29.20;99.90
10453;DHT22;5274;51.992;8.518;2022-08-24T19:23:33;29.00;99.90
10453;DHT22;5274;51.992;8.518;2022-08-24T19:26:00;28.80;99.90